Darstellungsparameter: Aktuell verwendete Einstellungen:
Skalierung der Graphiken ... ?
xyx+y,   Skalierungsfaktor:      Skalierung: Modus: x, Faktor: 1
Darstellungszeitraum ... ?
Vom - - bis: - -   Zeitraum: 15.08.2020 - 15.08.2020
Min/Max/Avg-Anzeige ... ?
Zeige MMA aktuell
Zeige MMA Monat
Zeige MMA alles
Zeige --A aktuell
Zeige --A Monat
Zeige --A alles
Keine MMA-Anzeige
MMA:
Keine MMA-Graphiken
MMA-Basis: 15.08.2020 - 15.08.2020
Quicknavigation für Darstellung... ?
Tage:      1T, 2T, 3T, 5T -1T -2T -3T -5T +1T +2T +3T +5T
Wochen: 1W, 2W, 3W -1W -2W -3W +1W +2W +3W
Monate: 1M, 3M, 6M -1M -3M -6M +1M +3M +6M
Jahre:    1J, 3J, 5J, 10J -1J -3J -5J -10J +1J +3J +5J +10J
Nutze für die Darstellung ... ?
Originaldaten oder Mittelwerte auf ...
Stundenbasis Tagesbasis Wochenbasis
Monatsbasis Jahresbasis      Datenbasis: Original-Daten
Darstellen als:
Statistik (Auto) Statistik J:M      Darstellung:
Zur Graphik,    zurück zur Übersicht aller Sensoren.
 
Tabellarische Datenbersicht: ?
 
Sensor: Nr:Datum:Temp:Feuchte:Taupunkt:
Aussen-T/F 1 15-08-2020 00:00:00 21.6 C 84 % 18.78 C
2 15-08-2020 00:05:00 21.5 C 84 % 18.68 C
3 15-08-2020 00:10:00 21.4 C 84 % 18.58 C
4 15-08-2020 00:15:00 21.4 C 84 % 18.58 C
5 15-08-2020 00:20:00 21.3 C 84 % 18.49 C
6 15-08-2020 00:25:00 21.3 C 85 % 18.67 C
7 15-08-2020 00:30:00 21.3 C 85 % 18.67 C
8 15-08-2020 00:35:00 21.2 C 85 % 18.58 C
9 15-08-2020 00:40:00 21.2 C 85 % 18.58 C
10 15-08-2020 00:45:00 21.2 C 86 % 18.76 C
11 15-08-2020 00:50:00 21.2 C 86 % 18.76 C
12 15-08-2020 00:55:00 21.1 C 86 % 18.67 C
13 15-08-2020 01:00:00 21.1 C 86 % 18.67 C
14 15-08-2020 01:05:00 21.1 C 86 % 18.67 C
15 15-08-2020 01:10:00 21 C 86 % 18.57 C
16 15-08-2020 01:15:00 21 C 86 % 18.57 C
17 15-08-2020 01:20:00 21 C 87 % 18.75 C
18 15-08-2020 01:25:00 21 C 86 % 18.57 C
19 15-08-2020 01:30:00 20.9 C 87 % 18.65 C
20 15-08-2020 01:35:00 20.9 C 87 % 18.65 C
21 15-08-2020 01:40:00 20.8 C 87 % 18.56 C
22 15-08-2020 01:45:00 20.8 C 87 % 18.56 C
23 15-08-2020 01:50:00 20.7 C 87 % 18.46 C
24 15-08-2020 01:55:00 20.7 C 87 % 18.46 C
25 15-08-2020 02:00:00 20.6 C 87 % 18.36 C
Sensor: Nr:Datum:Temp:Feuchte:Taupunkt:
Aussen-T/F 26 15-08-2020 02:05:00 20.6 C 87 % 18.36 C
27 15-08-2020 02:10:00 20.4 C 87 % 18.16 C
28 15-08-2020 02:15:00 20.3 C 87 % 18.06 C
29 15-08-2020 02:20:00 20.3 C 87 % 18.06 C
30 15-08-2020 02:25:00 20.2 C 87 % 17.97 C
31 15-08-2020 02:30:00 20.1 C 88 % 18.05 C
32 15-08-2020 02:35:00 20 C 88 % 17.95 C
33 15-08-2020 02:40:00 19.9 C 88 % 17.85 C
34 15-08-2020 02:45:00 19.9 C 88 % 17.85 C
35 15-08-2020 02:50:00 19.8 C 89 % 17.93 C
36 15-08-2020 02:55:00 19.7 C 89 % 17.84 C
37 15-08-2020 03:00:00 19.7 C 89 % 17.84 C
38 15-08-2020 03:05:00 19.7 C 90 % 18.01 C
39 15-08-2020 03:10:00 19.6 C 90 % 17.91 C
40 15-08-2020 03:15:00 19.6 C 90 % 17.91 C
41 15-08-2020 03:20:00 19.4 C 90 % 17.72 C
42 15-08-2020 03:25:00 19.4 C 90 % 17.72 C
43 15-08-2020 03:30:00 19.3 C 90 % 17.62 C
44 15-08-2020 03:35:00 19.3 C 91 % 17.79 C
45 15-08-2020 03:40:00 19.3 C 91 % 17.79 C
46 15-08-2020 03:45:00 19.2 C 91 % 17.69 C
47 15-08-2020 03:50:00 19.2 C 91 % 17.69 C
48 15-08-2020 03:55:00 19.1 C 91 % 17.6 C
49 15-08-2020 04:00:00 19 C 91 % 17.5 C
50 15-08-2020 04:05:00 18.9 C 92 % 17.57 C
Sensor: Nr:Datum:Temp:Feuchte:Taupunkt:
Aussen-T/F 51 15-08-2020 04:10:00 18.9 C 92 % 17.57 C
52 15-08-2020 04:15:00 18.8 C 92 % 17.47 C
53 15-08-2020 04:20:00 18.8 C 92 % 17.47 C
54 15-08-2020 04:25:00 18.7 C 92 % 17.37 C
55 15-08-2020 04:30:00 18.7 C 92 % 17.37 C
56 15-08-2020 04:35:00 18.6 C 93 % 17.45 C
57 15-08-2020 04:40:00 18.6 C 93 % 17.45 C
58 15-08-2020 04:45:00 18.6 C 93 % 17.45 C
59 15-08-2020 04:50:00 18.5 C 93 % 17.35 C
60 15-08-2020 04:55:00 18.4 C 93 % 17.25 C
61 15-08-2020 05:00:00 18.3 C 93 % 17.15 C
62 15-08-2020 05:05:00 18.3 C 93 % 17.15 C
63 15-08-2020 05:10:00 18.3 C 93 % 17.15 C
64 15-08-2020 05:15:00 18.3 C 93 % 17.15 C
65 15-08-2020 05:20:00 18.3 C 94 % 17.32 C
66 15-08-2020 05:25:00 18.2 C 94 % 17.22 C
67 15-08-2020 05:30:00 18.3 C 94 % 17.32 C
68 15-08-2020 05:35:00 18.3 C 94 % 17.32 C
69 15-08-2020 05:40:00 18.3 C 94 % 17.32 C
70 15-08-2020 05:45:00 18.3 C 94 % 17.32 C
71 15-08-2020 05:50:00 18.4 C 94 % 17.42 C
72 15-08-2020 05:55:00 18.4 C 94 % 17.42 C
73 15-08-2020 06:00:00 18.4 C 94 % 17.42 C
74 15-08-2020 06:05:00 18.4 C 94 % 17.42 C
75 15-08-2020 06:10:00 18.4 C 94 % 17.42 C
Sensor: Nr:Datum:Temp:Feuchte:Taupunkt:
Aussen-T/F 76 15-08-2020 06:15:00 18.3 C 94 % 17.32 C
77 15-08-2020 06:20:00 18.3 C 94 % 17.32 C
78 15-08-2020 06:25:00 18.3 C 94 % 17.32 C
79 15-08-2020 06:30:00 18.3 C 94 % 17.32 C
80 15-08-2020 06:35:00 18.2 C 94 % 17.22 C
81 15-08-2020 06:40:00 18.2 C 94 % 17.22 C
82 15-08-2020 06:45:00 18.2 C 95 % 17.39 C
83 15-08-2020 06:50:00 18.2 C 95 % 17.39 C
84 15-08-2020 06:55:00 18.2 C 95 % 17.39 C
85 15-08-2020 07:00:00 18.2 C 94 % 17.22 C
86 15-08-2020 07:05:00 18.2 C 95 % 17.39 C
87 15-08-2020 07:10:00 18.3 C 95 % 17.48 C
88 15-08-2020 07:15:00 18.3 C 95 % 17.48 C
89 15-08-2020 07:20:00 18.4 C 95 % 17.58 C
90 15-08-2020 07:25:00 18.5 C 95 % 17.68 C
91 15-08-2020 07:30:00 18.6 C 95 % 17.78 C
92 15-08-2020 07:35:00 18.7 C 95 % 17.88 C
93 15-08-2020 07:40:00 18.8 C 95 % 17.98 C
94 15-08-2020 07:45:00 18.9 C 95 % 18.08 C
95 15-08-2020 07:50:00 18.9 C 95 % 18.08 C
96 15-08-2020 07:55:00 19 C 95 % 18.18 C
97 15-08-2020 08:00:00 19.1 C 95 % 18.28 C
98 15-08-2020 08:05:00 19.1 C 95 % 18.28 C
99 15-08-2020 08:10:00 19.2 C 95 % 18.38 C
100 15-08-2020 08:15:00 19.3 C 95 % 18.48 C
Sensor: Nr:Datum:Temp:Feuchte:Taupunkt:
Aussen-T/F 101 15-08-2020 08:20:00 19.3 C 94 % 18.31 C
102 15-08-2020 08:25:00 19.4 C 94 % 18.41 C
103 15-08-2020 08:30:00 19.5 C 94 % 18.51 C
104 15-08-2020 08:35:00 19.6 C 94 % 18.61 C
105 15-08-2020 08:40:00 19.7 C 94 % 18.71 C
106 15-08-2020 08:45:00 19.8 C 93 % 18.63 C
107 15-08-2020 08:50:00 19.9 C 93 % 18.73 C
108 15-08-2020 08:55:00 20.1 C 93 % 18.93 C
109 15-08-2020 09:00:00 20.1 C 93 % 18.93 C
110 15-08-2020 09:05:00 20.2 C 92 % 18.86 C
111 15-08-2020 09:10:00 20.2 C 91 % 18.68 C
112 15-08-2020 09:15:00 20.3 C 91 % 18.78 C
113 15-08-2020 09:20:00 20.4 C 91 % 18.88 C
114 15-08-2020 09:25:00 20.6 C 90 % 18.9 C
115 15-08-2020 09:30:00 20.7 C 90 % 19 C
116 15-08-2020 09:35:00 20.8 C 89 % 18.92 C
117 15-08-2020 09:40:00 20.9 C 90 % 19.2 C
118 15-08-2020 09:45:00 21.1 C 89 % 19.22 C
119 15-08-2020 09:50:00 21.2 C 89 % 19.31 C
120 15-08-2020 09:55:00 21.4 C 88 % 19.33 C
121 15-08-2020 10:00:00 21.5 C 88 % 19.43 C
122 15-08-2020 10:05:00 21.6 C 88 % 19.53 C
123 15-08-2020 10:10:00 21.7 C 87 % 19.44 C
124 15-08-2020 10:15:00 21.9 C 87 % 19.64 C
125 15-08-2020 10:20:00 22 C 86 % 19.55 C
Sensor: Nr:Datum:Temp:Feuchte:Taupunkt:
Aussen-T/F 126 15-08-2020 10:25:00 22.2 C 86 % 19.75 C
127 15-08-2020 10:30:00 22.3 C 85 % 19.65 C
128 15-08-2020 10:35:00 22.4 C 84 % 19.56 C
129 15-08-2020 10:40:00 22.6 C 83 % 19.56 C
130 15-08-2020 10:45:00 22.7 C 83 % 19.66 C
131 15-08-2020 10:50:00 22.9 C 83 % 19.86 C
132 15-08-2020 10:55:00 23.1 C 81 % 19.66 C
133 15-08-2020 11:00:00 23.2 C 82 % 19.95 C
134 15-08-2020 11:05:00 23.4 C 82 % 20.15 C
135 15-08-2020 11:10:00 23.5 C 80 % 19.85 C
136 15-08-2020 11:15:00 23.6 C 80 % 19.95 C
137 15-08-2020 11:20:00 23.7 C 80 % 20.04 C
138 15-08-2020 11:25:00 23.8 C 79 % 19.94 C
139 15-08-2020 11:30:00 23.9 C 78 % 19.83 C
140 15-08-2020 11:35:00 24.2 C 79 % 20.32 C
141 15-08-2020 11:40:00 24.3 C 78 % 20.22 C
142 15-08-2020 11:45:00 24.3 C 77 % 20.01 C
143 15-08-2020 11:50:00 24.6 C 77 % 20.3 C
144 15-08-2020 11:55:00 24.8 C 75 % 20.06 C
145 15-08-2020 12:00:00 24.9 C 76 % 20.38 C
146 15-08-2020 12:05:00 24.9 C 75 % 20.16 C
147 15-08-2020 12:10:00 24.9 C 75 % 20.16 C
148 15-08-2020 12:15:00 24.9 C 74 % 19.94 C
149 15-08-2020 12:20:00 24.9 C 74 % 19.94 C
150 15-08-2020 12:25:00 24.9 C 74 % 19.94 C
Sensor: Nr:Datum:Temp:Feuchte:Taupunkt:
Aussen-T/F 151 15-08-2020 12:30:00 24.9 C 74 % 19.94 C
152 15-08-2020 12:35:00 25.1 C 74 % 20.14 C
153 15-08-2020 12:40:00 25.2 C 73 % 20.01 C
154 15-08-2020 12:45:00 25.3 C 72 % 19.89 C
155 15-08-2020 12:50:00 25.3 C 71 % 19.66 C
156 15-08-2020 12:55:00 25.3 C 71 % 19.66 C
157 15-08-2020 13:00:00 25.4 C 72 % 19.98 C
158 15-08-2020 13:05:00 25.5 C 71 % 19.85 C
159 15-08-2020 13:10:00 25.7 C 70 % 19.81 C
160 15-08-2020 13:15:00 25.7 C 69 % 19.58 C
161 15-08-2020 13:20:00 25.8 C 69 % 19.68 C
162 15-08-2020 13:25:00 25.8 C 69 % 19.68 C
163 15-08-2020 13:30:00 25.8 C 69 % 19.68 C
164 15-08-2020 13:35:00 25.9 C 68 % 19.54 C
165 15-08-2020 13:40:00 26.1 C 68 % 19.73 C
166 15-08-2020 13:45:00 26 C 67 % 19.4 C
167 15-08-2020 13:50:00 26.1 C 69 % 19.96 C
168 15-08-2020 13:55:00 26.1 C 67 % 19.49 C
169 15-08-2020 14:00:00 26.2 C 66 % 19.34 C
170 15-08-2020 14:05:00 26.3 C 67 % 19.68 C
171 15-08-2020 14:10:00 26.4 C 66 % 19.53 C
172 15-08-2020 14:15:00 26.6 C 66 % 19.72 C
173 15-08-2020 14:20:00 26.7 C 66 % 19.82 C
174 15-08-2020 14:25:00 26.9 C 65 % 19.76 C
175 15-08-2020 14:30:00 26.8 C 65 % 19.67 C
Sensor: Nr:Datum:Temp:Feuchte:Taupunkt:
Aussen-T/F 176 15-08-2020 14:35:00 26.3 C 64 % 18.94 C
177 15-08-2020 14:40:00 25.5 C 66 % 18.68 C
178 15-08-2020 14:45:00 25.1 C 66 % 18.3 C
179 15-08-2020 14:50:00 24.8 C 66 % 18.01 C
180 15-08-2020 14:55:00 24.6 C 67 % 18.06 C
181 15-08-2020 15:00:00 24.6 C 68 % 18.3 C
182 15-08-2020 15:05:00 24.6 C 67 % 18.06 C
183 15-08-2020 15:10:00 24.6 C 67 % 18.06 C
184 15-08-2020 15:15:00 24.5 C 68 % 18.2 C
185 15-08-2020 15:20:00 24.5 C 67 % 17.97 C
186 15-08-2020 15:25:00 24.5 C 67 % 17.97 C
187 15-08-2020 15:30:00 24.5 C 68 % 18.2 C
188 15-08-2020 15:35:00 24.4 C 69 % 18.34 C
189 15-08-2020 15:40:00 24.4 C 71 % 18.8 C
190 15-08-2020 15:45:00 24.4 C 72 % 19.02 C
191 15-08-2020 15:50:00 24.2 C 73 % 19.05 C
192 15-08-2020 15:55:00 24.1 C 76 % 19.6 C
193 15-08-2020 16:00:00 23.8 C 78 % 19.73 C
194 15-08-2020 16:05:00 23.6 C 80 % 19.95 C
195 15-08-2020 16:10:00 23.4 C 80 % 19.75 C
196 15-08-2020 16:15:00 23.3 C 81 % 19.85 C
197 15-08-2020 16:20:00 23.1 C 82 % 19.86 C
198 15-08-2020 16:25:00 22.8 C 84 % 19.95 C
199 15-08-2020 16:30:00 22.7 C 84 % 19.86 C
200 15-08-2020 16:35:00 22.6 C 84 % 19.76 C
Sensor: Nr:Datum:Temp:Feuchte:Taupunkt:
Aussen-T/F 201 15-08-2020 16:40:00 22.6 C 85 % 19.95 C
202 15-08-2020 16:45:00 22.7 C 84 % 19.86 C
203 15-08-2020 16:50:00 22.8 C 84 % 19.95 C
204 15-08-2020 16:55:00 22.9 C 84 % 20.05 C
205 15-08-2020 17:00:00 23.1 C 84 % 20.25 C
206 15-08-2020 17:05:00 23.2 C 84 % 20.34 C
207 15-08-2020 17:10:00 23.2 C 85 % 20.54 C
208 15-08-2020 17:15:00 23.2 C 83 % 20.15 C
209 15-08-2020 17:20:00 23.2 C 84 % 20.34 C
210 15-08-2020 17:25:00 23.3 C 84 % 20.44 C
211 15-08-2020 17:30:00 23.4 C 83 % 20.35 C
212 15-08-2020 17:35:00 23.6 C 82 % 20.34 C
213 15-08-2020 17:40:00 23.9 C 80 % 20.24 C
214 15-08-2020 17:45:00 24.1 C 79 % 20.23 C
215 15-08-2020 17:50:00 24.2 C 79 % 20.32 C
216 15-08-2020 17:55:00 24.2 C 79 % 20.32 C
217 15-08-2020 18:00:00 24.2 C 79 % 20.32 C
218 15-08-2020 18:05:00 24.2 C 79 % 20.32 C
219 15-08-2020 18:10:00 24.1 C 79 % 20.23 C
220 15-08-2020 18:15:00 24.1 C 79 % 20.23 C
221 15-08-2020 18:20:00 24.1 C 80 % 20.43 C
222 15-08-2020 18:25:00 24.1 C 81 % 20.63 C
223 15-08-2020 18:30:00 24 C 80 % 20.33 C
224 15-08-2020 18:35:00 23.9 C 81 % 20.44 C
225 15-08-2020 18:40:00 23.8 C 81 % 20.34 C
Sensor: Nr:Datum:Temp:Feuchte:Taupunkt:
Aussen-T/F 226 15-08-2020 18:45:00 23.8 C 82 % 20.54 C
227 15-08-2020 18:50:00 23.8 C 82 % 20.54 C
228 15-08-2020 18:55:00 23.7 C 82 % 20.44 C
229 15-08-2020 19:00:00 23.7 C 82 % 20.44 C
230 15-08-2020 19:05:00 23.6 C 83 % 20.54 C
231 15-08-2020 19:10:00 23.5 C 83 % 20.44 C
232 15-08-2020 19:15:00 23.4 C 83 % 20.35 C
233 15-08-2020 19:20:00 23.4 C 84 % 20.54 C
234 15-08-2020 19:25:00 23.3 C 84 % 20.44 C
235 15-08-2020 19:30:00 23.3 C 85 % 20.63 C
236 15-08-2020 19:35:00 23.3 C 85 % 20.63 C
237 15-08-2020 19:40:00 23.3 C 85 % 20.63 C
238 15-08-2020 19:45:00 23.3 C 85 % 20.63 C
239 15-08-2020 19:50:00 23.3 C 85 % 20.63 C
240 15-08-2020 19:55:00 23.4 C 86 % 20.92 C
241 15-08-2020 20:00:00 23.4 C 86 % 20.92 C
242 15-08-2020 20:05:00 23.3 C 87 % 21.01 C
243 15-08-2020 20:10:00 23.4 C 86 % 20.92 C
244 15-08-2020 20:15:00 23.4 C 86 % 20.92 C
245 15-08-2020 20:20:00 23.3 C 86 % 20.82 C
246 15-08-2020 20:25:00 23.3 C 85 % 20.63 C
247 15-08-2020 20:30:00 23.3 C 84 % 20.44 C
248 15-08-2020 20:35:00 23.2 C 84 % 20.34 C
249 15-08-2020 20:40:00 23.1 C 83 % 20.05 C
250 15-08-2020 20:45:00 22.9 C 84 % 20.05 C
Sensor: Nr:Datum:Temp:Feuchte:Taupunkt:
Aussen-T/F 251 15-08-2020 20:50:00 22.8 C 84 % 19.95 C
252 15-08-2020 20:55:00 22.7 C 83 % 19.66 C
253 15-08-2020 21:00:00 22.6 C 84 % 19.76 C
254 15-08-2020 21:05:00 22.4 C 84 % 19.56 C
255 15-08-2020 21:10:00 22.3 C 84 % 19.46 C
256 15-08-2020 21:15:00 22.2 C 85 % 19.56 C
257 15-08-2020 21:20:00 22.1 C 85 % 19.46 C
258 15-08-2020 21:25:00 22 C 86 % 19.55 C
259 15-08-2020 21:30:00 21.9 C 86 % 19.45 C
260 15-08-2020 21:35:00 21.8 C 86 % 19.35 C
261 15-08-2020 21:40:00 21.7 C 87 % 19.44 C
262 15-08-2020 21:45:00 21.7 C 87 % 19.44 C
263 15-08-2020 21:50:00 21.6 C 87 % 19.34 C
264 15-08-2020 21:55:00 21.6 C 88 % 19.53 C
265 15-08-2020 22:00:00 21.4 C 88 % 19.33 C
266 15-08-2020 22:05:00 21.4 C 88 % 19.33 C
267 15-08-2020 22:10:00 21.3 C 89 % 19.41 C
268 15-08-2020 22:15:00 21.3 C 89 % 19.41 C
269 15-08-2020 22:20:00 21.2 C 89 % 19.31 C
270 15-08-2020 22:25:00 21.2 C 89 % 19.31 C
271 15-08-2020 22:30:00 21.1 C 89 % 19.22 C
272 15-08-2020 22:35:00 21.1 C 90 % 19.39 C
273 15-08-2020 22:40:00 21 C 90 % 19.3 C
274 15-08-2020 22:45:00 20.9 C 90 % 19.2 C
275 15-08-2020 22:50:00 20.9 C 90 % 19.2 C
Sensor: Nr:Datum:Temp:Feuchte:Taupunkt:
Aussen-T/F 276 15-08-2020 22:55:00 20.8 C 90 % 19.1 C
277 15-08-2020 23:00:00 20.8 C 90 % 19.1 C
278 15-08-2020 23:05:00 20.8 C 90 % 19.1 C
279 15-08-2020 23:10:00 20.7 C 91 % 19.18 C
280 15-08-2020 23:15:00 20.6 C 91 % 19.08 C
281 15-08-2020 23:20:00 20.6 C 91 % 19.08 C
282 15-08-2020 23:25:00 20.5 C 91 % 18.98 C
283 15-08-2020 23:30:00 20.4 C 91 % 18.88 C
284 15-08-2020 23:35:00 20.3 C 91 % 18.78 C
285 15-08-2020 23:40:00 20.2 C 91 % 18.68 C
286 15-08-2020 23:45:00 20.2 C 91 % 18.68 C
287 15-08-2020 23:50:00 20.1 C 91 % 18.58 C
288 15-08-2020 23:55:00 20.1 C 91 % 18.58 C

Legende:
   Min
   Max


Maximal/Minimal-Werte vom 15.08.2020 - 15.08.2020

Sensor Min Max Avg
Temp
(Aussen-T/F)
18.2 °C
15-08-2020  05:25:00
26.9 °C
15-08-2020  14:25:00
21.83 °C
Feuchte
(Aussen-T/F)
64 %
15-08-2020  14:35:00
95 %
15-08-2020  06:45:00
84.61 %
Taupunkt
(Aussen-T/F)
17.15 C
15-08-2020  05:00:00
21.01 C
15-08-2020  20:05:00
18.96 C

Die Daten stammen von einer Davis Vantage Pro 2 Wetter-Station und werden unter Linux mit der Software wview2wettercgi und aufbereitet. Alle Angaben erfolgen ohne Gewähr für ihre Vollständigkeit oder Richtigkeit.
Kontakt: Rainer Krienke krienke@uni-koblenz.de . Meine Webseiten an der Uni Koblenz oder privat.
Version: $Revision: 0.78 $